Terminal Aerodrome Forecast
Issued by NWS Chicago, IL

Home | Current Version | Previous Version | Text Only | Print | Product List | Glossary On
Versions: 1 2 3 4 5 6 7 8 9 10 11 12 13 14 15 16 17 18 19 20 21 22 23 24 25 26 27 28 29 30 31 32 33 34
000
FTUS43 KLOT 271900 AAA
TAFRFD
TAF AMD
KRFD 271951Z 2720/2818 35005KT P6SM BKN250
     FM280100 06004KT P6SM FEW080 SCT250
     FM281500 12008KT P6SM BKN060 PROB30 2816/2818 2SM TSRA
      BKN070CB=

USA.gov is the U.S. government's official web portal to all federal, state and local government web resources and services.